Terminal Aerodrome Forecast
Issued by NWS

Home | Current Version | Previous Version | Text Only | Print | Product List | Glossary On
Versions: 1 2 3 4 5 6 7 8 9 10 11 12 13 14 15 16 17 18 19 20
978
FTUS41 KILN 291538 AAA
TAFLCK
TAF AMD
KLCK 291538Z 2916/3012 07004KT P6SM VCSH BKN035
      TEMPO 2917/2919 3SM SHRA BR BKN022
     FM292000 04006KT 4SM -SHRA BR VCTS OVC025CB
     FM300400 06006KT 4SM -SHRA BR OVC015
     FM300800 06006KT 4SM -SHRA BR OVC006=

USA.gov is the U.S. government's official web portal to all federal, state and local government web resources and services.